createdAt,value
2018-07-28T00:01:55.418Z,51.30
2018-07-28T00:04:00.269Z,51.50
2018-07-28T00:06:05.537Z,51.80
2018-07-28T00:08:10.349Z,51.80
2018-07-28T00:12:19.673Z,51.30
2018-07-28T00:14:24.382Z,51.90
2018-07-28T00:16:29.155Z,52.20
2018-07-28T00:18:34.088Z,52.10
2018-07-28T00:20:38.926Z,52.70
2018-07-28T00:22:43.759Z,52.30
2018-07-28T00:24:48.533Z,52.60
2018-07-28T00:26:53.396Z,53.00
2018-07-28T00:28:58.326Z,52.60
2018-07-28T00:31:03.501Z,52.80
2018-07-28T00:33:08.333Z,52.90
2018-07-28T00:35:13.176Z,52.90
2018-07-28T00:37:17.963Z,53.10
2018-07-28T00:39:22.650Z,52.80
2018-07-28T00:41:27.576Z,52.60
2018-07-28T00:43:32.606Z,52.80
2018-07-28T00:45:37.532Z,52.70
2018-07-28T00:47:42.372Z,52.90
2018-07-28T00:49:47.155Z,52.90
2018-07-28T00:51:52.352Z,53.30
2018-07-28T00:53:57.251Z,53.40
2018-07-28T00:56:02.031Z,51.40
2018-07-28T00:58:06.889Z,51.30
2018-07-28T01:00:11.754Z,51.20
2018-07-28T01:02:16.616Z,51.50
2018-07-28T01:04:21.372Z,51.60
2018-07-28T01:06:26.194Z,52.40
2018-07-28T01:08:31.002Z,51.80
2018-07-28T01:10:35.799Z,51.70
2018-07-28T01:12:40.581Z,51.70
2018-07-28T01:14:45.401Z,52.30
2018-07-28T01:16:50.187Z,52.60
2018-07-28T01:18:55.286Z,52.40
2018-07-28T01:21:00.074Z,53.00
2018-07-28T01:23:04.896Z,53.20
2018-07-28T01:25:11.391Z,53.10
2018-07-28T01:27:16.100Z,53.00
2018-07-28T01:29:20.830Z,53.60
2018-07-28T01:31:25.744Z,53.90
2018-07-28T01:33:30.494Z,54.30
2018-07-28T01:35:35.326Z,54.30
2018-07-28T01:37:40.151Z,54.40
2018-07-28T01:39:44.879Z,54.90
2018-07-28T01:41:49.671Z,54.40
2018-07-28T01:43:54.413Z,53.60
2018-07-28T01:45:59.241Z,54.20
2018-07-28T01:48:04.049Z,54.80
2018-07-28T01:50:10.162Z,54.90
2018-07-28T01:52:15.898Z,54.90
2018-07-28T01:54:20.715Z,54.50
2018-07-28T01:56:25.508Z,54.50
2018-07-28T01:58:31.114Z,55.70
2018-07-28T02:00:35.888Z,55.20
2018-07-28T02:02:40.841Z,55.50
2018-07-28T02:04:45.619Z,55.90
2018-07-28T02:06:50.392Z,56.50
2018-07-28T02:08:55.281Z,55.90
2018-07-28T02:11:00.122Z,56.20
2018-07-28T02:13:04.889Z,55.60
2018-07-28T02:15:09.792Z,55.60
2018-07-28T02:17:14.784Z,56.80
2018-07-28T02:19:20.070Z,56.40
2018-07-28T02:21:24.822Z,55.70
2018-07-28T02:23:29.553Z,56.30
2018-07-28T02:25:34.283Z,57.10
2018-07-28T02:27:39.022Z,56.60
2018-07-28T02:29:43.761Z,56.50
2018-07-28T02:31:48.499Z,57.10
2018-07-28T02:33:53.225Z,56.90
2018-07-28T02:35:57.933Z,57.80
2018-07-28T02:38:02.814Z,57.60
2018-07-28T02:40:08.066Z,57.70
2018-07-28T02:42:12.890Z,57.60
2018-07-28T02:44:17.601Z,57.70
2018-07-28T02:46:22.411Z,57.90
2018-07-28T02:48:27.115Z,58.50
2018-07-28T02:50:31.840Z,57.80
2018-07-28T02:52:36.736Z,57.00
2018-07-28T02:54:41.485Z,56.50
2018-07-28T02:56:46.164Z,56.70
2018-07-28T02:58:50.894Z,57.50
2018-07-28T03:00:55.765Z,57.20
2018-07-28T03:03:00.503Z,57.40
2018-07-28T03:05:06.257Z,57.90
2018-07-28T03:07:10.997Z,58.70
2018-07-28T03:09:15.785Z,58.60
2018-07-28T03:11:20.647Z,58.70
2018-07-28T03:13:25.498Z,59.30
2018-07-28T03:15:32.087Z,59.70
2018-07-28T03:17:36.918Z,59.70
2018-07-28T03:19:42.049Z,59.70
2018-07-28T03:21:47.396Z,60.60
2018-07-28T03:23:53.763Z,60.60
2018-07-28T03:25:58.484Z,61.00
2018-07-28T03:28:03.221Z,61.40
2018-07-28T03:30:08.137Z,62.00
2018-07-28T03:32:13.040Z,62.50
2018-07-28T03:34:17.813Z,62.80
2018-07-28T03:36:22.656Z,62.90
2018-07-28T03:38:27.442Z,63.30
2018-07-28T03:40:32.237Z,63.90
2018-07-28T03:42:37.035Z,64.40
2018-07-28T03:44:41.845Z,65.20
2018-07-28T03:46:46.771Z,65.30
2018-07-28T03:48:51.600Z,65.90
2018-07-28T03:50:56.414Z,66.30
2018-07-28T03:53:01.233Z,66.80
2018-07-28T03:55:07.604Z,67.00
2018-07-28T03:57:12.425Z,67.60
2018-07-28T03:59:17.220Z,68.40
2018-07-28T04:01:22.168Z,68.90
2018-07-28T04:03:26.992Z,68.90
2018-07-28T04:05:31.745Z,69.60
2018-07-28T04:07:36.511Z,70.10
2018-07-28T04:09:41.237Z,70.70
2018-07-28T04:11:45.949Z,70.90
2018-07-28T04:13:50.639Z,71.50
2018-07-28T04:18:06.963Z,71.90
2018-07-28T04:20:12.025Z,72.30
2018-07-28T04:22:18.366Z,73.30
2018-07-28T04:24:23.677Z,73.80
2018-07-28T04:26:28.835Z,75.00
2018-07-28T04:28:33.798Z,74.90
2018-07-28T04:30:41.697Z,75.40
2018-07-28T04:32:46.706Z,76.60
2018-07-28T04:34:51.415Z,76.60
2018-07-28T04:36:56.227Z,77.20
2018-07-28T04:39:01.033Z,76.80
2018-07-28T04:41:06.410Z,77.50
2018-07-28T04:43:11.284Z,78.50
2018-07-28T04:45:16.048Z,78.50
2018-07-28T04:47:20.848Z,78.70
2018-07-28T04:49:25.582Z,79.30
2018-07-28T04:51:31.064Z,79.50
2018-07-28T04:55:42.132Z,80.50
2018-07-28T04:57:46.860Z,79.30
2018-07-28T04:59:54.118Z,79.30
2018-07-28T05:01:58.930Z,80.00
2018-07-28T05:04:03.808Z,79.70
2018-07-28T05:06:08.521Z,80.20
2018-07-28T05:08:13.332Z,80.30
2018-07-28T05:10:18.152Z,80.40
2018-07-28T05:12:23.053Z,80.00
2018-07-28T05:14:27.799Z,79.80
2018-07-28T05:16:32.675Z,79.00
2018-07-28T05:18:37.543Z,78.30
2018-07-28T05:20:42.546Z,77.80
2018-07-28T05:22:47.306Z,77.40
2018-07-28T05:24:52.037Z,76.60
2018-07-28T05:26:56.834Z,76.30
2018-07-28T05:29:01.720Z,76.10
2018-07-28T05:31:06.589Z,76.00
2018-07-28T05:33:11.368Z,76.50
2018-07-28T05:35:16.480Z,76.20
2018-07-28T05:37:21.566Z,76.10
2018-07-28T05:39:26.453Z,76.10
2018-07-28T05:41:31.327Z,76.10
2018-07-28T05:43:36.883Z,76.90
2018-07-28T05:45:41.694Z,77.20
2018-07-28T05:47:46.645Z,76.90
2018-07-28T05:49:51.409Z,75.70
2018-07-28T05:51:56.200Z,75.60
2018-07-28T05:54:00.993Z,75.10
2018-07-28T05:56:06.060Z,75.10
2018-07-28T05:58:10.989Z,75.10
2018-07-28T06:00:15.848Z,75.60
2018-07-28T06:02:20.708Z,75.70
2018-07-28T06:04:25.475Z,75.50
2018-07-28T06:06:30.457Z,76.80
2018-07-28T06:08:35.512Z,78.00
2018-07-28T06:10:40.266Z,78.40
2018-07-28T06:12:44.997Z,79.10
2018-07-28T06:14:49.725Z,82.00
2018-07-28T06:16:54.461Z,83.40
2018-07-28T06:18:59.384Z,83.20
2018-07-28T06:21:04.309Z,86.00
2018-07-28T06:23:09.064Z,89.80
2018-07-28T06:25:13.920Z,90.90
2018-07-28T06:27:18.721Z,91.80
2018-07-28T06:29:23.480Z,92.40
2018-07-28T06:31:28.954Z,93.60
2018-07-28T06:33:33.833Z,95.00
2018-07-28T06:35:38.905Z,96.20
2018-07-28T06:37:44.298Z,97.00
2018-07-28T06:39:49.901Z,97.60
2018-07-28T06:41:54.776Z,98.40
2018-07-28T06:44:03.716Z,99.90
2018-07-28T06:46:09.008Z,99.90
2018-07-28T06:48:13.800Z,99.90
2018-07-28T06:50:18.813Z,99.90
2018-07-28T06:52:23.660Z,99.90
2018-07-28T06:54:29.181Z,99.90
2018-07-28T06:56:34.215Z,99.90
2018-07-28T06:58:39.106Z,99.90
2018-07-28T07:00:44.270Z,99.90
2018-07-28T07:02:49.399Z,97.90
2018-07-28T07:04:55.084Z,97.30
2018-07-28T07:07:00.084Z,97.80
2018-07-28T07:09:08.363Z,97.50
2018-07-28T07:11:13.366Z,96.00
2018-07-28T07:13:18.419Z,95.70
2018-07-28T07:15:23.271Z,95.70
2018-07-28T07:17:28.269Z,96.40
2018-07-28T07:19:33.161Z,95.90
2018-07-28T07:21:38.676Z,95.60
2018-07-28T07:23:43.514Z,93.10
2018-07-28T07:25:48.365Z,92.30
2018-07-28T07:27:53.355Z,92.10
2018-07-28T07:29:58.287Z,93.20
2018-07-28T07:32:03.154Z,92.30
2018-07-28T07:34:09.245Z,92.40
2018-07-28T07:36:14.349Z,92.60
2018-07-28T07:38:19.770Z,93.10
2018-07-28T07:40:24.538Z,91.80
2018-07-28T07:42:29.512Z,92.00
2018-07-28T07:44:34.356Z,92.00
2018-07-28T07:46:39.528Z,92.20
2018-07-28T07:48:44.434Z,92.20
2018-07-28T07:50:49.261Z,92.50
2018-07-28T07:52:54.396Z,92.20
2018-07-28T07:54:59.252Z,91.70
2018-07-28T07:57:04.059Z,92.30
2018-07-28T07:59:09.030Z,92.00
2018-07-28T08:01:14.019Z,91.60
2018-07-28T08:03:19.062Z,92.20
2018-07-28T08:05:24.961Z,91.40
2018-07-28T08:07:30.353Z,90.30
2018-07-28T08:09:35.171Z,90.40
2018-07-28T08:11:40.417Z,90.80
2018-07-28T08:13:45.239Z,91.50
2018-07-28T08:15:50.525Z,91.10
2018-07-28T08:17:55.543Z,90.80
2018-07-28T08:20:00.453Z,90.90
2018-07-28T08:22:06.608Z,91.30
2018-07-28T08:24:11.637Z,91.30
2018-07-28T08:26:17.058Z,91.60
2018-07-28T08:28:22.239Z,91.90
2018-07-28T08:30:27.248Z,92.30
2018-07-28T08:32:32.203Z,92.10
2018-07-28T08:34:37.416Z,92.40
2018-07-28T08:36:42.929Z,91.90
2018-07-28T08:38:47.982Z,91.70
2018-07-28T08:40:52.926Z,91.10
2018-07-28T08:42:58.103Z,91.00
2018-07-28T08:45:03.062Z,90.80
2018-07-28T08:47:08.115Z,90.20
2018-07-28T08:49:12.999Z,90.20
2018-07-28T08:51:17.881Z,89.60
2018-07-28T08:55:27.841Z,89.60
2018-07-28T08:57:32.622Z,89.50
2018-07-28T08:59:37.406Z,89.40
2018-07-28T09:01:42.256Z,86.90
2018-07-28T09:03:47.295Z,86.90
2018-07-28T09:10:42.825Z,87.80
2018-07-28T09:12:49.115Z,87.70
2018-07-28T09:14:54.147Z,86.70
2018-07-28T09:16:58.982Z,86.50
2018-07-28T09:19:06.299Z,85.80
2018-07-28T09:21:11.151Z,85.70
2018-07-28T09:23:15.990Z,85.60
2018-07-28T09:25:20.685Z,85.20
2018-07-28T09:27:25.637Z,85.10
2018-07-28T09:29:30.662Z,83.90
2018-07-28T09:31:35.703Z,82.50
2018-07-28T09:33:40.694Z,81.70
2018-07-28T09:37:50.322Z,80.30
2018-07-28T09:39:55.484Z,78.60
2018-07-28T09:42:00.538Z,76.50
2018-07-28T09:44:05.477Z,76.60
2018-07-28T09:46:10.519Z,76.90
2018-07-28T09:54:34.970Z,77.60
2018-07-28T09:56:40.126Z,76.20
2018-07-28T09:58:45.445Z,76.00
2018-07-28T10:00:55.253Z,76.70
2018-07-28T10:03:00.158Z,76.30
2018-07-28T10:05:05.099Z,76.90
2018-07-28T10:07:10.018Z,77.20
2018-07-28T10:09:15.587Z,76.20
2018-07-28T10:11:20.660Z,76.90
2018-07-28T10:13:26.192Z,75.90
2018-07-28T10:15:31.313Z,74.90
2018-07-28T10:19:40.877Z,74.70
2018-07-28T10:21:45.681Z,74.50
2018-07-28T10:25:55.089Z,74.60
2018-07-28T10:28:00.100Z,74.90
2018-07-28T10:30:06.083Z,74.40
2018-07-28T10:32:11.337Z,73.80
2018-07-28T10:34:16.204Z,73.80
2018-07-28T10:36:21.130Z,74.30
2018-07-28T10:38:26.030Z,73.60
2018-07-28T10:40:30.827Z,73.30
2018-07-28T10:42:36.165Z,73.70
2018-07-28T10:44:41.497Z,74.20
2018-07-28T10:46:46.496Z,74.60
2018-07-28T10:48:53.521Z,74.10
2018-07-28T10:50:58.373Z,74.30
2018-07-28T10:53:03.193Z,74.20
2018-07-28T10:55:07.995Z,73.90
2018-07-28T10:57:12.893Z,74.80
2018-07-28T10:59:17.783Z,74.80
2018-07-28T11:01:22.506Z,72.90
2018-07-28T11:03:27.366Z,71.70
2018-07-28T11:05:32.157Z,73.20
2018-07-28T11:07:36.934Z,73.40
2018-07-28T11:09:41.871Z,72.20
2018-07-28T11:11:46.953Z,70.50
2018-07-28T11:13:51.749Z,72.00
2018-07-28T11:15:56.518Z,71.40
2018-07-28T11:18:01.251Z,71.80
2018-07-28T11:20:08.828Z,72.50
2018-07-28T11:24:18.156Z,72.10
2018-07-28T11:26:23.160Z,72.30
2018-07-28T11:28:27.867Z,72.00
2018-07-28T11:30:32.754Z,71.30
2018-07-28T11:32:54.152Z,72.10
2018-07-28T11:35:15.299Z,70.60
2018-07-28T11:38:08.339Z,71.40
2018-07-28T11:42:34.671Z,71.90
2018-07-28T11:45:08.604Z,70.60
2018-07-28T11:47:13.820Z,68.30
2018-07-28T11:49:18.624Z,68.50
2018-07-28T11:51:23.533Z,67.10
2018-07-28T11:53:28.284Z,67.80
2018-07-28T11:55:33.118Z,68.50
2018-07-28T11:57:37.866Z,64.60
2018-07-28T11:59:42.685Z,62.50
2018-07-28T12:01:48.231Z,62.50
2018-07-28T12:03:52.953Z,62.10
2018-07-28T12:05:57.768Z,63.10
2018-07-28T12:08:02.500Z,61.20
2018-07-28T12:10:09.069Z,61.50
2018-07-28T12:12:13.804Z,61.90
2018-07-28T12:14:18.792Z,62.20
2018-07-28T12:16:23.639Z,62.60
2018-07-28T12:18:28.491Z,62.20
2018-07-28T12:20:33.135Z,60.70
2018-07-28T12:22:38.094Z,61.00
2018-07-28T12:24:43.082Z,60.20
2018-07-28T12:26:48.276Z,60.90
2018-07-28T12:28:53.143Z,61.00
2018-07-28T12:30:57.963Z,61.40
2018-07-28T12:33:02.884Z,60.20
2018-07-28T12:35:07.938Z,60.60
2018-07-28T12:37:12.685Z,60.60
2018-07-28T12:39:17.407Z,61.00
2018-07-28T12:41:22.075Z,60.70
2018-07-28T12:43:26.840Z,61.30
2018-07-28T12:45:31.581Z,61.10
2018-07-28T12:47:36.426Z,61.10
2018-07-28T12:49:41.846Z,61.20
2018-07-28T12:51:46.639Z,60.60
2018-07-28T12:53:51.408Z,59.00
2018-07-28T12:55:56.201Z,59.40
2018-07-28T12:58:01.051Z,58.60
2018-07-28T13:00:06.074Z,58.80
2018-07-28T13:02:10.830Z,58.70
2018-07-28T13:04:15.963Z,59.10
2018-07-28T13:06:20.895Z,58.70
2018-07-28T13:08:25.664Z,58.30
2018-07-28T13:10:30.734Z,59.30
2018-07-28T13:12:35.644Z,60.00
2018-07-28T13:14:40.499Z,58.10
2018-07-28T13:16:45.212Z,57.90
2018-07-28T13:18:50.017Z,57.60
2018-07-28T13:20:55.386Z,57.90
2018-07-28T13:23:00.123Z,57.60
2018-07-28T13:25:06.089Z,58.00
2018-07-28T13:27:11.264Z,58.10
2018-07-28T13:29:15.987Z,57.80
2018-07-28T13:31:21.178Z,57.60
2018-07-28T13:33:26.198Z,57.40
2018-07-28T13:35:31.049Z,57.00
2018-07-28T13:37:36.349Z,57.00
2018-07-28T13:39:41.253Z,55.80
2018-07-28T13:41:46.424Z,55.50
2018-07-28T13:43:51.839Z,55.40
2018-07-28T13:45:56.652Z,55.70
2018-07-28T13:48:01.422Z,54.60
2018-07-28T13:50:06.462Z,54.90
2018-07-28T13:52:11.559Z,55.30
2018-07-28T13:54:16.308Z,55.00
2018-07-28T13:56:21.439Z,55.20
2018-07-28T13:58:26.526Z,55.90
2018-07-28T14:00:31.205Z,54.60
2018-07-28T14:02:36.049Z,53.60
2018-07-28T14:04:40.872Z,53.30
2018-07-28T14:06:45.734Z,53.70
2018-07-28T14:08:50.568Z,54.40
2018-07-28T14:10:55.422Z,53.40
2018-07-28T14:13:00.160Z,53.10
2018-07-28T14:15:05.545Z,52.40
2018-07-28T14:17:10.317Z,52.80
2018-07-28T14:19:15.245Z,53.20
2018-07-28T14:21:20.154Z,54.20
2018-07-28T14:23:25.186Z,54.10
2018-07-28T14:25:29.977Z,54.00
2018-07-28T14:27:34.928Z,54.80
2018-07-28T14:29:39.616Z,54.80
2018-07-28T14:31:44.464Z,54.20
2018-07-28T14:33:49.499Z,54.70
2018-07-28T14:35:55.608Z,55.00
2018-07-28T14:38:00.526Z,55.30
2018-07-28T14:40:05.626Z,54.90
2018-07-28T14:42:10.655Z,55.00
2018-07-28T14:44:15.444Z,55.00
2018-07-28T14:46:20.380Z,55.80
2018-07-28T14:48:25.168Z,55.90
2018-07-28T14:50:30.164Z,55.50
2018-07-28T14:52:35.040Z,55.20
2018-07-28T14:54:39.921Z,55.10
2018-07-28T14:56:44.723Z,55.20
2018-07-28T14:58:49.598Z,56.00
2018-07-28T15:00:54.452Z,56.60
2018-07-28T15:02:59.368Z,56.60
2018-07-28T15:05:04.345Z,56.70
2018-07-28T15:07:09.474Z,56.60
2018-07-28T15:09:14.303Z,57.50
2018-07-28T15:11:19.508Z,57.40
2018-07-28T15:13:24.784Z,57.20
2018-07-28T15:15:29.575Z,57.30
2018-07-28T15:17:34.628Z,57.50
2018-07-28T15:19:39.601Z,58.10
2018-07-28T15:21:44.461Z,57.80
2018-07-28T15:23:49.471Z,57.80
2018-07-28T15:25:54.661Z,57.90
2018-07-28T15:27:59.824Z,57.40
2018-07-28T15:30:05.199Z,57.90
2018-07-28T15:32:10.107Z,57.90
2018-07-28T15:34:15.071Z,57.70
2018-07-28T15:36:20.122Z,57.70
2018-07-28T15:38:25.043Z,57.40
2018-07-28T15:40:30.003Z,56.30
2018-07-28T15:42:35.024Z,56.10
2018-07-28T15:44:39.962Z,55.30
2018-07-28T15:46:46.294Z,55.20
2018-07-28T15:48:51.442Z,54.80
2018-07-28T15:50:56.549Z,54.70
2018-07-28T15:53:01.462Z,54.40
2018-07-28T15:55:06.685Z,54.70
2018-07-28T15:57:11.482Z,54.40
2018-07-28T15:59:16.327Z,54.00
2018-07-28T16:01:21.118Z,53.70
2018-07-28T16:03:26.011Z,53.10
2018-07-28T16:05:30.756Z,52.50
2018-07-28T16:07:35.880Z,52.10
2018-07-28T16:09:41.248Z,52.30
2018-07-28T16:11:46.205Z,52.50
2018-07-28T16:13:51.066Z,52.50
2018-07-28T16:15:55.840Z,53.10
2018-07-28T16:18:00.584Z,53.70
2018-07-28T16:20:05.519Z,53.50
2018-07-28T16:22:10.291Z,53.70
2018-07-28T16:26:19.610Z,53.50
2018-07-28T16:28:24.303Z,53.60
2018-07-28T16:30:29.030Z,53.70
2018-07-28T16:32:33.970Z,53.90
2018-07-28T16:34:38.731Z,54.00
2018-07-28T16:36:44.174Z,53.70
2018-07-28T16:38:48.865Z,53.90
2018-07-28T16:40:53.724Z,54.10
2018-07-28T16:42:58.512Z,55.10
2018-07-28T16:45:04.116Z,54.60
2018-07-28T16:47:09.392Z,55.50
2018-07-28T16:49:14.168Z,55.70
2018-07-28T16:51:19.039Z,55.80
2018-07-28T16:55:29.224Z,56.80
2018-07-28T16:57:34.053Z,57.20
2018-07-28T16:59:38.916Z,57.40
2018-07-28T17:01:43.620Z,57.10
2018-07-28T17:03:48.533Z,57.20
2018-07-28T17:05:53.262Z,57.10
2018-07-28T17:07:58.193Z,57.20
2018-07-28T17:10:03.003Z,56.80
2018-07-28T17:12:09.667Z,56.80
2018-07-28T17:14:14.418Z,56.90
2018-07-28T17:16:19.236Z,56.60
2018-07-28T17:18:24.233Z,56.40
2018-07-28T17:20:29.051Z,56.00
2018-07-28T17:22:33.818Z,56.10
2018-07-28T17:26:43.029Z,55.20
2018-07-28T17:28:47.753Z,55.00
2018-07-28T17:30:52.675Z,55.60
2018-07-28T17:32:57.493Z,55.70
2018-07-28T17:35:02.528Z,55.50
2018-07-28T17:37:07.560Z,55.80
2018-07-28T17:39:12.733Z,55.10
2018-07-28T17:41:17.668Z,54.90
2018-07-28T17:43:22.598Z,54.30
2018-07-28T17:45:27.683Z,54.30
2018-07-28T17:47:32.458Z,53.80
2018-07-28T17:49:37.217Z,53.10
2018-07-28T17:51:42.014Z,53.40
2018-07-28T17:53:46.823Z,53.00
2018-07-28T17:55:51.531Z,53.70
2018-07-28T17:57:56.242Z,54.20
2018-07-28T18:00:01.169Z,54.30
2018-07-28T18:02:06.122Z,53.20
2018-07-28T18:04:10.819Z,53.70
2018-07-28T18:06:15.637Z,53.80
2018-07-28T18:08:20.347Z,53.90
2018-07-28T18:10:25.198Z,53.60
2018-07-28T18:12:30.414Z,53.40
2018-07-28T18:14:35.619Z,53.00
2018-07-28T18:16:40.322Z,52.20
2018-07-28T18:20:49.652Z,51.60
2018-07-28T18:22:54.390Z,51.70
2018-07-28T18:24:59.986Z,51.40
2018-07-28T18:27:04.948Z,52.10
2018-07-28T18:29:09.696Z,52.10
2018-07-28T18:31:14.583Z,51.70
2018-07-28T18:33:19.415Z,51.80
2018-07-28T18:35:24.358Z,51.50
2018-07-28T18:37:29.173Z,50.80
2018-07-28T18:39:33.931Z,51.10
2018-07-28T18:41:38.728Z,51.20
2018-07-28T18:43:43.612Z,51.30
2018-07-28T18:45:48.280Z,51.30
2018-07-28T18:47:53.046Z,51.30
2018-07-28T18:49:57.818Z,51.30
2018-07-28T18:52:02.613Z,51.50
2018-07-28T18:54:07.346Z,51.50
2018-07-28T18:56:12.038Z,51.70
2018-07-28T18:58:16.842Z,51.10
2018-07-28T19:02:26.019Z,51.70
2018-07-28T19:04:30.754Z,51.10
2018-07-28T19:06:35.596Z,52.00
2018-07-28T19:08:40.957Z,52.30
2018-07-28T19:10:45.944Z,51.90
2018-07-28T19:12:56.165Z,51.80
2018-07-28T19:15:01.200Z,52.20
2018-07-28T19:17:06.071Z,52.10
2018-07-28T19:19:17.253Z,52.30
2018-07-28T19:21:22.095Z,52.90
2018-07-28T19:23:31.907Z,53.10
2018-07-28T19:25:36.700Z,53.10
2018-07-28T19:29:50.596Z,53.70
2018-07-28T19:31:55.851Z,53.60
2018-07-28T19:34:00.988Z,53.30
2018-07-28T19:36:11.200Z,53.30
2018-07-28T19:38:16.169Z,53.60
2018-07-28T19:40:21.224Z,53.60
2018-07-28T19:42:31.133Z,53.60
2018-07-28T19:44:36.046Z,53.40
2018-07-28T19:46:41.277Z,53.50
2018-07-28T19:48:48.532Z,54.00
2018-07-28T19:52:59.248Z,53.80
2018-07-28T19:55:04.297Z,53.60
2018-07-28T19:57:09.160Z,53.30
2018-07-28T19:59:14.276Z,53.10
2018-07-28T20:01:19.282Z,53.50
2018-07-28T20:05:28.773Z,52.70
2018-07-28T20:09:38.408Z,52.80
2018-07-28T20:11:43.424Z,52.70
2018-07-28T20:13:48.423Z,52.50
2018-07-28T20:15:53.361Z,52.70
2018-07-28T20:17:58.407Z,52.80
2018-07-28T20:20:03.233Z,52.60
2018-07-28T20:22:08.251Z,53.10
2018-07-28T20:24:13.255Z,52.60
2018-07-28T20:26:18.194Z,52.10
2018-07-28T20:28:23.084Z,52.50
2018-07-28T20:30:27.922Z,51.90
2018-07-28T20:32:32.747Z,52.30
2018-07-28T20:34:37.685Z,52.00
2018-07-28T20:36:42.609Z,52.20
2018-07-28T20:38:47.380Z,52.10
2018-07-28T20:40:52.193Z,52.10
2018-07-28T20:45:01.384Z,53.00
2018-07-28T20:47:08.183Z,53.00
2018-07-28T20:49:13.314Z,53.50
2018-07-28T20:51:18.159Z,53.50
2018-07-28T20:53:23.075Z,53.90
2018-07-28T20:55:28.124Z,53.70
2018-07-28T20:59:37.516Z,53.60
2018-07-28T21:01:42.217Z,53.50
2018-07-28T21:03:46.936Z,53.50
2018-07-28T21:05:51.629Z,52.60
2018-07-28T21:07:56.705Z,52.30
2018-07-28T21:10:01.477Z,52.10
2018-07-28T21:12:06.757Z,51.90
2018-07-28T21:14:11.878Z,52.10
2018-07-28T21:16:16.812Z,52.20
2018-07-28T21:18:21.493Z,51.70
2018-07-28T21:20:26.727Z,51.40
2018-07-28T21:22:32.013Z,51.20
2018-07-28T21:24:37.562Z,51.40
2018-07-28T21:26:42.489Z,51.00
2018-07-28T21:28:47.576Z,50.90
2018-07-28T21:30:52.485Z,51.50
2018-07-28T21:32:57.236Z,51.40
2018-07-28T21:35:02.241Z,51.20
2018-07-28T21:37:07.195Z,51.80
2018-07-28T21:39:12.239Z,51.60
2018-07-28T21:41:16.992Z,52.20
2018-07-28T21:43:21.690Z,51.90
2018-07-28T21:45:26.764Z,52.10
2018-07-28T21:47:31.569Z,52.20
2018-07-28T21:49:36.364Z,52.20
2018-07-28T21:51:41.108Z,52.20
2018-07-28T21:53:45.876Z,52.30
2018-07-28T21:55:50.550Z,52.40
2018-07-28T21:57:55.245Z,53.00
2018-07-28T21:59:59.971Z,53.90
2018-07-28T22:02:04.722Z,53.70
2018-07-28T22:04:09.453Z,53.90
2018-07-28T22:06:14.269Z,54.50
2018-07-28T22:08:18.967Z,54.90
2018-07-28T22:10:24.081Z,55.80
2018-07-28T22:12:29.056Z,56.00
2018-07-28T22:14:33.748Z,56.80
2018-07-28T22:16:38.522Z,57.10
2018-07-28T22:18:43.414Z,57.70
2018-07-28T22:20:48.562Z,58.00
2018-07-28T22:22:53.464Z,58.60
2018-07-28T22:24:59.416Z,59.80
2018-07-28T22:27:04.402Z,60.70
2018-07-28T22:29:09.421Z,61.10
2018-07-28T22:31:14.284Z,61.50
2018-07-28T22:33:19.270Z,61.60
2018-07-28T22:35:24.070Z,61.90
2018-07-28T22:37:29.090Z,61.90
2018-07-28T22:39:33.797Z,61.10
2018-07-28T22:41:38.563Z,60.70
2018-07-28T22:43:43.512Z,60.20
2018-07-28T22:45:48.474Z,59.40
2018-07-28T22:47:53.145Z,59.40
2018-07-28T22:49:57.803Z,59.40
2018-07-28T22:52:02.531Z,59.60
2018-07-28T22:54:07.249Z,59.70
2018-07-28T22:56:11.905Z,59.70
2018-07-28T22:58:16.580Z,59.80
2018-07-28T23:00:21.361Z,60.20
2018-07-28T23:02:26.170Z,60.50
2018-07-28T23:04:31.107Z,60.50
2018-07-28T23:06:35.926Z,60.80
2018-07-28T23:08:40.672Z,60.80
2018-07-28T23:10:45.403Z,61.80
2018-07-28T23:12:50.215Z,62.90
2018-07-28T23:14:54.937Z,63.30
2018-07-28T23:16:59.718Z,63.40
2018-07-28T23:19:04.431Z,63.40
2018-07-28T23:21:09.342Z,64.10
2018-07-28T23:23:14.195Z,64.60
2018-07-28T23:25:18.929Z,65.10
2018-07-28T23:27:23.638Z,65.70
2018-07-28T23:29:28.338Z,65.30
2018-07-28T23:31:34.014Z,65.40
2018-07-28T23:33:38.682Z,65.40
2018-07-28T23:35:43.332Z,65.40
2018-07-28T23:37:48.084Z,65.20
2018-07-28T23:39:52.910Z,65.50
2018-07-28T23:41:57.684Z,65.40
2018-07-28T23:44:02.378Z,65.40
2018-07-28T23:46:07.239Z,65.50
2018-07-28T23:48:12.279Z,65.70
2018-07-28T23:50:17.185Z,66.10
2018-07-28T23:52:22.207Z,66.00
2018-07-28T23:54:27.120Z,66.20
2018-07-28T23:56:32.203Z,66.50
2018-07-28T23:58:37.465Z,66.50
